TimeAKST,TemperatureF,Dew PointF,Humidity,Sea Level PressureIn,VisibilityMPH,Wind Direction,Wind SpeedMPH,Gust SpeedMPH,PrecipitationIn,Events,Conditions,WindDirDegrees,DateUTC
12:16 AM,24.8,21.2,86,29.40,10.0,Calm,Calm,-,N/A,,Partly Cloudy,0,2013-03-01 09:16:00
12:56 AM,21.2,17.6,86,29.41,10.0,East,3.5,-,N/A,,Scattered Clouds,80,2013-03-01 09:56:00
1:16 AM,21.2,19.4,93,29.41,10.0,Calm,Calm,-,N/A,,Mostly Cloudy,0,2013-03-01 10:16:00
1:36 AM,19.4,17.6,93,29.42,10.0,Calm,Calm,-,N/A,,Overcast,0,2013-03-01 10:36:00
1:56 AM,21.2,17.6,86,29.43,10.0,Calm,Calm,-,N/A,,Scattered Clouds,0,2013-03-01 10:56:00
2:16 AM,19.4,19.4,100,29.44,10.0,ENE,3.5,-,N/A,,Scattered Clouds,70,2013-03-01 11:16:00
3:36 AM,21.2,17.6,86,29.45,10.0,East,4.6,-,N/A,,Overcast,80,2013-03-01 12:36:00
3:56 AM,21.2,19.4,93,29.46,10.0,East,4.6,-,N/A,,Overcast,80,2013-03-01 12:56:00
4:16 AM,21.2,19.4,93,29.46,10.0,ENE,4.6,-,N/A,,Overcast,60,2013-03-01 13:16:00
4:36 AM,21.2,19.4,93,29.47,10.0,Calm,Calm,-,N/A,,Overcast,0,2013-03-01 13:36:00
4:56 AM,21.2,19.4,93,29.47,10.0,Calm,Calm,-,N/A,,Overcast,0,2013-03-01 13:56:00
5:16 AM,23.0,19.4,86,29.48,10.0,Calm,Calm,-,N/A,,Overcast,0,2013-03-01 14:16:00
5:36 AM,24.8,21.2,86,29.49,10.0,Calm,Calm,-,N/A,,Overcast,0,2013-03-01 14:36:00
5:56 AM,24.8,19.4,80,29.50,10.0,East,5.8,-,N/A,,Overcast,90,2013-03-01 14:56:00
6:16 AM,24.8,21.2,86,29.50,10.0,East,5.8,-,N/A,,Overcast,80,2013-03-01 15:16:00
6:36 AM,24.8,21.2,86,29.51,10.0,ENE,3.5,-,N/A,,Overcast,60,2013-03-01 15:36:00
6:56 AM,24.8,21.2,86,29.52,10.0,Calm,Calm,-,N/A,,Overcast,0,2013-03-01 15:56:00
7:16 AM,24.8,21.2,86,29.53,10.0,Calm,Calm,-,N/A,,Overcast,0,2013-03-01 16:16:00
7:36 AM,24.8,21.2,86,29.54,10.0,Calm,Calm,-,N/A,,Overcast,0,2013-03-01 16:36:00
7:56 AM,24.8,21.2,86,29.54,10.0,ESE,3.5,-,N/A,,Overcast,110,2013-03-01 16:56:00
8:16 AM,26.6,23.0,86,29.55,10.0,East,3.5,-,N/A,,Overcast,90,2013-03-01 17:16:00
8:36 AM,26.6,23.0,86,29.56,10.0,East,3.5,-,N/A,,Overcast,90,2013-03-01 17:36:00
8:56 AM,28.4,24.8,86,29.56,10.0,East,3.5,-,N/A,,Overcast,100,2013-03-01 17:56:00
9:16 AM,28.4,24.8,86,29.57,10.0,East,3.5,-,N/A,,Overcast,80,2013-03-01 18:16:00
9:36 AM,28.4,24.8,86,29.59,10.0,Calm,Calm,-,N/A,,Overcast,0,2013-03-01 18:36:00
9:56 AM,28.4,24.8,86,29.60,9.0,Calm,Calm,-,N/A,,Overcast,0,2013-03-01 18:56:00
10:16 AM,30.2,26.6,86,29.61,10.0,ESE,3.5,-,N/A,,Overcast,110,2013-03-01 19:16:00
10:36 AM,30.2,26.6,86,29.62,10.0,Calm,Calm,-,N/A,,Overcast,0,2013-03-01 19:36:00
10:56 AM,30.2,26.6,86,29.63,10.0,East,3.5,-,N/A,,Overcast,80,2013-03-01 19:56:00
11:16 AM,32.0,28.4,87,29.63,10.0,East,3.5,-,N/A,,Overcast,80,2013-03-01 20:16:00
11:36 AM,33.8,28.4,81,29.65,10.0,Calm,Calm,-,N/A,,Overcast,0,2013-03-01 20:36:00
11:56 AM,33.8,26.6,75,29.66,10.0,Calm,Calm,-,N/A,,Overcast,0,2013-03-01 20:56:00
12:16 PM,33.8,26.6,75,29.67,10.0,SW,4.6,-,N/A,,Overcast,230,2013-03-01 21:16:00
12:36 PM,33.8,26.6,75,29.68,10.0,WSW,4.6,-,N/A,,Overcast,250,2013-03-01 21:36:00
12:56 PM,33.8,28.4,81,29.68,10.0,Calm,Calm,-,N/A,,Overcast,0,2013-03-01 21:56:00
1:16 PM,33.8,28.4,81,29.69,10.0,WNW,5.8,-,N/A,,Overcast,300,2013-03-01 22:16:00
1:36 PM,33.8,28.4,81,29.70,5.0,WNW,6.9,-,N/A,,Overcast,290,2013-03-01 22:36:00
1:56 PM,33.8,28.4,81,29.71,5.0,WNW,6.9,-,N/A,,Overcast,290,2013-03-01 22:56:00
2:16 PM,33.8,28.4,81,29.71,7.0,West,6.9,-,N/A,,Overcast,280,2013-03-01 23:16:00
2:36 PM,33.8,26.6,75,29.72,10.0,West,8.1,-,N/A,,Overcast,280,2013-03-01 23:36:00
2:56 PM,33.8,26.6,75,29.73,5.0,West,10.4,-,N/A,,Overcast,280,2013-03-01 23:56:00
3:16 PM,32.0,26.6,80,29.74,2.5,West,9.2,-,N/A,,Overcast,280,2013-03-02 00:16:00
3:36 PM,30.2,28.4,93,29.75,2.0,West,8.1,-,N/A,,Overcast,280,2013-03-02 00:36:00
3:56 PM,30.2,28.4,93,29.76,1.5,West,8.1,-,N/A,,Overcast,280,2013-03-02 00:56:00
4:16 PM,30.2,28.4,93,29.76,1.8,WNW,6.9,-,N/A,,Overcast,290,2013-03-02 01:16:00
4:36 PM,30.2,28.4,93,29.77,1.2,WNW,8.1,-,N/A,,Overcast,290,2013-03-02 01:36:00
4:56 PM,30.2,28.4,93,29.78,2.0,West,5.8,-,N/A,,Overcast,280,2013-03-02 01:56:00
5:16 PM,30.2,26.6,86,29.79,3.0,WNW,5.8,-,N/A,,Overcast,290,2013-03-02 02:16:00
5:36 PM,30.2,26.6,86,29.79,4.0,WNW,5.8,-,N/A,,Overcast,290,2013-03-02 02:36:00
5:56 PM,30.2,26.6,86,29.80,3.0,WNW,5.8,-,N/A,,Overcast,290,2013-03-02 02:56:00
6:16 PM,30.2,28.4,93,29.80,3.0,WNW,4.6,-,N/A,,Overcast,290,2013-03-02 03:16:00
6:36 PM,30.2,26.6,86,29.81,2.5,WNW,3.5,-,N/A,,Overcast,290,2013-03-02 03:36:00
6:56 PM,30.2,26.6,86,29.82,1.8,Calm,Calm,-,N/A,,Overcast,0,2013-03-02 03:56:00
7:16 PM,28.4,26.6,93,29.83,2.0,Calm,Calm,-,N/A,,Overcast,0,2013-03-02 04:16:00
7:36 PM,30.2,28.4,93,29.84,1.5,WNW,3.5,-,N/A,,Overcast,290,2013-03-02 04:36:00
7:56 PM,30.2,28.4,93,29.85,1.8,West,3.5,-,N/A,,Overcast,270,2013-03-02 04:56:00
8:16 PM,30.2,26.6,86,29.85,1.5,WSW,4.6,-,N/A,,Overcast,250,2013-03-02 05:16:00
8:36 PM,30.2,26.6,86,29.86,2.0,WSW,3.5,-,N/A,,Overcast,250,2013-03-02 05:36:00
8:56 PM,30.2,26.6,86,29.87,3.0,Calm,Calm,-,N/A,,Mostly Cloudy,0,2013-03-02 05:56:00
9:16 PM,30.2,26.6,86,29.87,3.0,Calm,Calm,-,N/A,,Mostly Cloudy,0,2013-03-02 06:16:00
9:36 PM,28.4,26.6,93,29.88,2.5,Calm,Calm,-,N/A,,Overcast,0,2013-03-02 06:36:00
9:56 PM,28.4,26.6,93,29.89,9.0,Calm,Calm,-,N/A,,Overcast,0,2013-03-02 06:56:00
10:16 PM,28.4,26.6,93,29.89,9.0,Calm,Calm,-,N/A,,Overcast,0,2013-03-02 07:16:00
10:36 PM,28.4,26.6,93,29.90,9.0,Calm,Calm,-,N/A,,Overcast,0,2013-03-02 07:36:00
10:56 PM,28.4,26.6,93,29.90,10.0,Calm,Calm,-,N/A,,Overcast,0,2013-03-02 07:56:00
11:16 PM,28.4,26.6,93,29.91,10.0,Calm,Calm,-,N/A,,Overcast,0,2013-03-02 08:16:00
11:36 PM,28.4,26.6,93,29.92,10.0,Calm,Calm,-,N/A,,Overcast,0,2013-03-02 08:36:00
11:56 PM,28.4,26.6,93,29.93,10.0,Calm,Calm,-,N/A,,Overcast,0,2013-03-02 08:56:00